sensor_id;sensor_type;location;lat;lon;timestamp;pressure;altitude;pressure_sealevel;temperature;humidity
21504;BME280;10913;51.992;9.228;2023-03-15T00:02:12;99677.50;;;3.27;85.46
21504;BME280;10913;51.992;9.228;2023-03-15T00:04:39;99684.44;;;3.25;85.53
21504;BME280;10913;51.992;9.228;2023-03-15T00:07:05;99689.59;;;3.19;85.11
21504;BME280;10913;51.992;9.228;2023-03-15T00:09:31;99692.16;;;3.16;85.57
21504;BME280;10913;51.992;9.228;2023-03-15T00:11:56;99694.72;;;3.13;85.58
21504;BME280;10913;51.992;9.228;2023-03-15T00:14:22;99699.94;;;3.13;86.12
21504;BME280;10913;51.992;9.228;2023-03-15T00:16:47;99705.16;;;3.13;85.79
21504;BME280;10913;51.992;9.228;2023-03-15T00:19:13;99704.25;;;3.09;85.43
21504;BME280;10913;51.992;9.228;2023-03-15T00:21:39;99708.59;;;3.08;85.67
21504;BME280;10913;51.992;9.228;2023-03-15T00:24:08;99704.25;;;3.09;85.57
21504;BME280;10913;51.992;9.228;2023-03-15T00:26:34;99715.50;;;3.06;85.64
21504;BME280;10913;51.992;9.228;2023-03-15T00:28:59;99712.84;;;3.03;85.36
21504;BME280;10913;51.992;9.228;2023-03-15T00:31:25;99718.03;;;3.00;85.91
21504;BME280;10913;51.992;9.228;2023-03-15T00:33:51;99719.75;;;2.97;86.19
21504;BME280;10913;51.992;9.228;2023-03-15T00:36:19;99726.69;;;2.96;85.52
21504;BME280;10913;51.992;9.228;2023-03-15T00:38:49;99717.09;;;2.95;86.59
21504;BME280;10913;51.992;9.228;2023-03-15T00:41:16;99721.41;;;2.93;86.22
21504;BME280;10913;51.992;9.228;2023-03-15T00:43:43;99728.34;;;2.91;86.04
21504;BME280;10913;51.992;9.228;2023-03-15T00:46:10;99737.03;;;2.92;86.67
21504;BME280;10913;51.992;9.228;2023-03-15T00:48:35;99740.50;;;2.91;86.65
21504;BME280;10913;51.992;9.228;2023-03-15T00:51:10;99737.94;;;2.92;86.65
21504;BME280;10913;51.992;9.228;2023-03-15T00:53:37;99734.41;;;2.90;86.68
21504;BME280;10913;51.992;9.228;2023-03-15T00:56:08;99741.34;;;2.88;86.38
21504;BME280;10913;51.992;9.228;2023-03-15T00:58:34;99737.81;;;2.86;86.50
21504;BME280;10913;51.992;9.228;2023-03-15T01:01:05;99736.06;;;2.85;86.82
21504;BME280;10913;51.992;9.228;2023-03-15T01:03:30;99746.53;;;2.87;87.24
21504;BME280;10913;51.992;9.228;2023-03-15T01:05:55;99743.91;;;2.87;87.20
21504;BME280;10913;51.992;9.228;2023-03-15T01:08:21;99738.69;;;2.85;86.38
21504;BME280;10913;51.992;9.228;2023-03-15T01:10:48;99735.22;;;2.86;86.10
21504;BME280;10913;51.992;9.228;2023-03-15T01:13:14;99733.47;;;2.87;86.07
21504;BME280;10913;51.992;9.228;2023-03-15T01:15:39;99743.09;;;2.89;86.51
21504;BME280;10913;51.992;9.228;2023-03-15T01:18:04;99739.63;;;2.90;87.11
21504;BME280;10913;51.992;9.228;2023-03-15T01:20:30;99741.44;;;2.94;86.70
21504;BME280;10913;51.992;9.228;2023-03-15T01:22:55;99741.44;;;2.94;86.21
21504;BME280;10913;51.992;9.228;2023-03-15T01:25:20;99741.47;;;2.96;85.84
21504;BME280;10913;51.992;9.228;2023-03-15T01:27:46;99745.84;;;2.98;86.75
21504;BME280;10913;51.992;9.228;2023-03-15T01:30:11;99743.22;;;2.97;85.92
21504;BME280;10913;51.992;9.228;2023-03-15T01:32:37;99747.56;;;2.96;85.75
21504;BME280;10913;51.992;9.228;2023-03-15T01:35:02;99743.25;;;2.98;85.60
21504;BME280;10913;51.992;9.228;2023-03-15T01:37:28;99746.72;;;3.00;86.26
21504;BME280;10913;51.992;9.228;2023-03-15T01:39:53;99751.09;;;3.01;85.65
21504;BME280;10913;51.992;9.228;2023-03-15T01:42:19;99752.91;;;3.07;86.98
21504;BME280;10913;51.992;9.228;2023-03-15T01:44:55;99754.66;;;3.08;86.01
21504;BME280;10913;51.992;9.228;2023-03-15T01:47:21;99753.84;;;3.10;86.41
21504;BME280;10913;51.992;9.228;2023-03-15T01:49:57;99750.38;;;3.11;86.04
21504;BME280;10913;51.992;9.228;2023-03-15T01:52:29;99767.78;;;3.13;86.10
21504;BME280;10913;51.992;9.228;2023-03-15T01:54:57;99759.22;;;3.20;87.58
21504;BME280;10913;51.992;9.228;2023-03-15T02:00:13;99759.25;;;3.24;86.86
21504;BME280;10913;51.992;9.228;2023-03-15T02:02:42;99765.31;;;3.23;87.26
21504;BME280;10913;51.992;9.228;2023-03-15T02:05:15;99769.00;;;3.36;88.50
21504;BME280;10913;51.992;9.228;2023-03-15T02:07:43;99779.38;;;3.33;87.92
21504;BME280;10913;51.992;9.228;2023-03-15T02:10:52;99779.41;;;3.34;88.57
21504;BME280;10913;51.992;9.228;2023-03-15T02:13:20;99781.16;;;3.35;89.02
21504;BME280;10913;51.992;9.228;2023-03-15T02:15:50;99777.63;;;3.32;89.65
21504;BME280;10913;51.992;9.228;2023-03-15T02:18:18;99775.13;;;3.38;90.35
21504;BME280;10913;51.992;9.228;2023-03-15T02:20:56;99780.34;;;3.41;90.44
21504;BME280;10913;51.992;9.228;2023-03-15T02:23:26;99787.22;;;3.33;91.20
21504;BME280;10913;51.992;9.228;2023-03-15T02:26:19;99790.69;;;3.32;91.76
21504;BME280;10913;51.992;9.228;2023-03-15T02:28:48;99787.94;;;3.23;92.37
21504;BME280;10913;51.992;9.228;2023-03-15T02:31:14;99780.94;;;3.22;92.54
21504;BME280;10913;51.992;9.228;2023-03-15T02:33:43;99788.78;;;3.22;93.14
21504;BME280;10913;51.992;9.228;2023-03-15T02:36:19;99787.06;;;3.24;94.49
21504;BME280;10913;51.992;9.228;2023-03-15T02:38:45;99794.84;;;3.21;95.34
21504;BME280;10913;51.992;9.228;2023-03-15T02:41:15;99784.44;;;3.19;96.39
21504;BME280;10913;51.992;9.228;2023-03-15T02:43:42;99787.88;;;3.18;97.15
21504;BME280;10913;51.992;9.228;2023-03-15T02:46:10;99793.06;;;3.15;98.06
21504;BME280;10913;51.992;9.228;2023-03-15T02:48:36;99799.09;;;3.13;98.02
21504;BME280;10913;51.992;9.228;2023-03-15T02:51:02;99793.00;;;3.12;98.61
21504;BME280;10913;51.992;9.228;2023-03-15T02:53:29;99801.66;;;3.09;99.20
21504;BME280;10913;51.992;9.228;2023-03-15T02:55:55;99799.88;;;3.07;99.30
21504;BME280;10913;51.992;9.228;2023-03-15T02:58:20;99799.06;;;3.09;99.25
21504;BME280;10913;51.992;9.228;2023-03-15T03:00:46;99799.06;;;3.09;99.68
21504;BME280;10913;51.992;9.228;2023-03-15T03:03:11;99807.72;;;3.07;100.00
21504;BME280;10913;51.992;9.228;2023-03-15T03:05:36;99809.38;;;3.02;100.00
21504;BME280;10913;51.992;9.228;2023-03-15T03:08:02;99806.78;;;3.03;100.00
21504;BME280;10913;51.992;9.228;2023-03-15T03:10:27;99812.91;;;3.05;100.00
21504;BME280;10913;51.992;9.228;2023-03-15T03:12:53;99819.06;;;3.09;100.00
21504;BME280;10913;51.992;9.228;2023-03-15T03:15:19;99819.97;;;3.11;100.00
21504;BME280;10913;51.992;9.228;2023-03-15T03:17:45;99834.81;;;3.15;99.65
21504;BME280;10913;51.992;9.228;2023-03-15T03:20:11;99837.50;;;3.20;99.68
21504;BME280;10913;51.992;9.228;2023-03-15T03:22:39;99840.97;;;3.20;99.15
21504;BME280;10913;51.992;9.228;2023-03-15T03:25:07;99845.38;;;3.24;99.78
21504;BME280;10913;51.992;9.228;2023-03-15T03:27:34;99850.66;;;3.29;99.53
21504;BME280;10913;51.992;9.228;2023-03-15T03:30:05;99845.41;;;3.26;100.00
21504;BME280;10913;51.992;9.228;2023-03-15T03:32:31;99851.50;;;3.26;99.98
21504;BME280;10913;51.992;9.228;2023-03-15T03:34:57;99860.22;;;3.27;99.96
21504;BME280;10913;51.992;9.228;2023-03-15T03:37:22;99864.63;;;3.31;99.56
21504;BME280;10913;51.992;9.228;2023-03-15T03:39:48;99862.94;;;3.33;99.03
21504;BME280;10913;51.992;9.228;2023-03-15T03:42:13;99864.72;;;3.37;99.01
21504;BME280;10913;51.992;9.228;2023-03-15T03:44:39;99877.78;;;3.37;99.52
21504;BME280;10913;51.992;9.228;2023-03-15T03:47:06;99884.78;;;3.41;98.81
21504;BME280;10913;51.992;9.228;2023-03-15T03:49:31;99883.03;;;3.40;99.45
21504;BME280;10913;51.992;9.228;2023-03-15T03:51:57;99889.13;;;3.40;99.58
21504;BME280;10913;51.992;9.228;2023-03-15T03:54:24;99889.16;;;3.42;99.60
21504;BME280;10913;51.992;9.228;2023-03-15T03:56:49;99891.81;;;3.45;99.29
21504;BME280;10913;51.992;9.228;2023-03-15T03:59:15;99899.69;;;3.48;99.35
21504;BME280;10913;51.992;9.228;2023-03-15T04:01:40;99896.28;;;3.52;98.73
21504;BME280;10913;51.992;9.228;2023-03-15T04:04:06;99897.97;;;3.49;99.42
21504;BME280;10913;51.992;9.228;2023-03-15T04:06:32;99903.16;;;3.47;99.43
21504;BME280;10913;51.992;9.228;2023-03-15T04:08:57;99907.53;;;3.48;99.50
21504;BME280;10913;51.992;9.228;2023-03-15T04:11:23;99909.25;;;3.46;99.90
21504;BME280;10913;51.992;9.228;2023-03-15T04:13:53;99923.19;;;3.48;99.33
21504;BME280;10913;51.992;9.228;2023-03-15T04:16:19;99928.41;;;3.48;99.95
21504;BME280;10913;51.992;9.228;2023-03-15T04:18:45;99931.88;;;3.47;100.00
21504;BME280;10913;51.992;9.228;2023-03-15T04:21:10;99936.28;;;3.50;99.56
21504;BME280;10913;51.992;9.228;2023-03-15T04:23:36;99937.16;;;3.50;98.98
21504;BME280;10913;51.992;9.228;2023-03-15T04:26:02;99934.50;;;3.47;99.29
21504;BME280;10913;51.992;9.228;2023-03-15T04:28:29;99944.13;;;3.51;98.77
21504;BME280;10913;51.992;9.228;2023-03-15T04:30:56;99935.41;;;3.49;99.24
21504;BME280;10913;51.992;9.228;2023-03-15T04:33:26;99946.66;;;3.45;99.61
21504;BME280;10913;51.992;9.228;2023-03-15T04:35:52;99950.09;;;3.44;99.89
21504;BME280;10913;51.992;9.228;2023-03-15T04:38:18;99953.56;;;3.43;99.59
21504;BME280;10913;51.992;9.228;2023-03-15T04:40:43;99949.16;;;3.40;100.00
21504;BME280;10913;51.992;9.228;2023-03-15T04:43:09;99956.19;;;3.43;99.63
21504;BME280;10913;51.992;9.228;2023-03-15T04:45:34;99956.13;;;3.38;99.97
21504;BME280;10913;51.992;9.228;2023-03-15T04:48:01;99967.31;;;3.31;100.00
21504;BME280;10913;51.992;9.228;2023-03-15T04:50:27;99957.69;;;3.29;100.00
21504;BME280;10913;51.992;9.228;2023-03-15T04:52:53;99958.56;;;3.29;100.00
21504;BME280;10913;51.992;9.228;2023-03-15T04:55:18;99959.44;;;3.30;99.73
21504;BME280;10913;51.992;9.228;2023-03-15T04:57:44;99973.31;;;3.26;99.81
21504;BME280;10913;51.992;9.228;2023-03-15T05:00:10;99968.91;;;3.23;99.56
21504;BME280;10913;51.992;9.228;2023-03-15T05:02:37;99970.63;;;3.23;99.60
21504;BME280;10913;51.992;9.228;2023-03-15T05:05:09;99979.38;;;3.25;99.07
21504;BME280;10913;51.992;9.228;2023-03-15T05:07:35;99981.88;;;3.20;99.80
21504;BME280;10913;51.992;9.228;2023-03-15T05:10:00;99988.00;;;3.19;99.38
21504;BME280;10913;51.992;9.228;2023-03-15T05:12:27;99982.78;;;3.19;99.77
21504;BME280;10913;51.992;9.228;2023-03-15T05:14:52;99984.50;;;3.20;99.43
21504;BME280;10913;51.992;9.228;2023-03-15T05:17:17;99991.53;;;3.24;99.29
21504;BME280;10913;51.992;9.228;2023-03-15T05:19:43;99983.69;;;3.23;98.83
21504;BME280;10913;51.992;9.228;2023-03-15T05:22:08;99996.72;;;3.23;98.96
21504;BME280;10913;51.992;9.228;2023-03-15T05:24:34;99993.22;;;3.21;99.11
21504;BME280;10913;51.992;9.228;2023-03-15T05:26:59;99990.56;;;3.18;99.71
21504;BME280;10913;51.992;9.228;2023-03-15T05:29:25;99999.25;;;3.17;99.41
21504;BME280;10913;51.992;9.228;2023-03-15T05:31:50;99999.19;;;3.14;99.55
21504;BME280;10913;51.992;9.228;2023-03-15T05:34:17;100001.78;;;3.12;99.61
21504;BME280;10913;51.992;9.228;2023-03-15T05:36:42;100007.00;;;3.12;99.62
21504;BME280;10913;51.992;9.228;2023-03-15T05:39:08;100014.78;;;3.10;99.61
21504;BME280;10913;51.992;9.228;2023-03-15T05:41:33;100020.03;;;3.12;99.45
21504;BME280;10913;51.992;9.228;2023-03-15T05:43:59;100019.22;;;3.15;99.48
21504;BME280;10913;51.992;9.228;2023-03-15T05:46:24;100026.19;;;3.14;99.26
21504;BME280;10913;51.992;9.228;2023-03-15T05:48:49;100024.44;;;3.15;99.11
21504;BME280;10913;51.992;9.228;2023-03-15T05:51:15;100032.34;;;3.18;98.91
21504;BME280;10913;51.992;9.228;2023-03-15T05:53:41;100043.69;;;3.20;98.94
21504;BME280;10913;51.992;9.228;2023-03-15T05:56:07;100054.13;;;3.21;99.21
21504;BME280;10913;51.992;9.228;2023-03-15T05:58:32;100056.72;;;3.21;99.22
21504;BME280;10913;51.992;9.228;2023-03-15T06:00:58;100061.13;;;3.24;99.18
21504;BME280;10913;51.992;9.228;2023-03-15T06:03:26;100066.34;;;3.24;99.09
21504;BME280;10913;51.992;9.228;2023-03-15T06:05:51;100071.59;;;3.25;99.01
21504;BME280;10913;51.992;9.228;2023-03-15T06:08:16;100064.63;;;3.24;99.09
21504;BME280;10913;51.992;9.228;2023-03-15T06:10:42;100068.97;;;3.24;99.20
21504;BME280;10913;51.992;9.228;2023-03-15T06:13:07;100080.28;;;3.24;99.18
21504;BME280;10913;51.992;9.228;2023-03-15T06:15:33;100079.44;;;3.25;99.17
21504;BME280;10913;51.992;9.228;2023-03-15T06:17:58;100084.56;;;3.21;99.52
21504;BME280;10913;51.992;9.228;2023-03-15T06:20:24;100088.06;;;3.20;99.49
21504;BME280;10913;51.992;9.228;2023-03-15T06:22:49;100095.00;;;3.21;99.47
21504;BME280;10913;51.992;9.228;2023-03-15T06:25:15;100096.78;;;3.22;99.50
21504;BME280;10913;51.992;9.228;2023-03-15T06:27:40;100109.88;;;3.25;99.49
21504;BME280;10913;51.992;9.228;2023-03-15T06:30:06;100116.84;;;3.24;99.31
21504;BME280;10913;51.992;9.228;2023-03-15T06:32:32;100119.44;;;3.24;99.28
21504;BME280;10913;51.992;9.228;2023-03-15T06:34:57;100127.31;;;3.26;99.66
21504;BME280;10913;51.992;9.228;2023-03-15T06:37:23;100127.28;;;3.24;99.85
21504;BME280;10913;51.992;9.228;2023-03-15T06:39:48;100130.72;;;3.23;99.90
21504;BME280;10913;51.992;9.228;2023-03-15T06:42:15;100136.91;;;3.27;99.43
21504;BME280;10913;51.992;9.228;2023-03-15T06:44:41;100136.97;;;3.30;99.69
21504;BME280;10913;51.992;9.228;2023-03-15T06:47:09;100137.03;;;3.33;99.24
21504;BME280;10913;51.992;9.228;2023-03-15T06:49:35;100147.53;;;3.36;99.35
21504;BME280;10913;51.992;9.228;2023-03-15T06:52:02;100145.00;;;3.40;99.02
21504;BME280;10913;51.992;9.228;2023-03-15T06:54:28;100156.38;;;3.44;98.79
21504;BME280;10913;51.992;9.228;2023-03-15T06:56:53;100157.28;;;3.46;98.47
21504;BME280;10913;51.992;9.228;2023-03-15T06:59:18;100166.06;;;3.50;98.63
21504;BME280;10913;51.992;9.228;2023-03-15T07:01:44;100154.81;;;3.52;98.35
21504;BME280;10913;51.992;9.228;2023-03-15T07:04:09;100167.84;;;3.51;98.88
21504;BME280;10913;51.992;9.228;2023-03-15T07:06:35;100165.25;;;3.52;99.02
21504;BME280;10913;51.992;9.228;2023-03-15T07:09:02;100167.03;;;3.53;98.41
21504;BME280;10913;51.992;9.228;2023-03-15T07:11:27;100170.53;;;3.55;98.37
21504;BME280;10913;51.992;9.228;2023-03-15T07:13:53;100164.50;;;3.58;98.67
21504;BME280;10913;51.992;9.228;2023-03-15T07:16:18;100169.84;;;3.65;98.45
21504;BME280;10913;51.992;9.228;2023-03-15T07:18:43;100171.88;;;3.78;98.31
21504;BME280;10913;51.992;9.228;2023-03-15T07:21:09;100173.03;;;3.96;97.24
21504;BME280;10913;51.992;9.228;2023-03-15T07:23:34;100178.56;;;4.12;96.08
21504;BME280;10913;51.992;9.228;2023-03-15T07:25:59;100185.72;;;4.24;94.72
21504;BME280;10913;51.992;9.228;2023-03-15T07:28:26;100185.00;;;4.33;94.78
21504;BME280;10913;51.992;9.228;2023-03-15T07:30:56;100195.41;;;4.30;94.16
21504;BME280;10913;51.992;9.228;2023-03-15T07:33:23;100193.59;;;4.26;94.50
21504;BME280;10913;51.992;9.228;2023-03-15T07:35:50;100187.41;;;4.22;95.42
21504;BME280;10913;51.992;9.228;2023-03-15T07:38:15;100189.91;;;4.14;95.37
21504;BME280;10913;51.992;9.228;2023-03-15T07:40:41;100199.50;;;4.14;95.40
21504;BME280;10913;51.992;9.228;2023-03-15T07:43:06;100203.09;;;4.22;95.25
21504;BME280;10913;51.992;9.228;2023-03-15T07:45:31;100211.06;;;4.28;95.68
21504;BME280;10913;51.992;9.228;2023-03-15T07:47:58;100211.16;;;4.33;95.07
21504;BME280;10913;51.992;9.228;2023-03-15T07:50:24;100220.00;;;4.42;94.37
21504;BME280;10913;51.992;9.228;2023-03-15T07:52:49;100219.25;;;4.48;94.10
21504;BME280;10913;51.992;9.228;2023-03-15T07:55:15;100219.31;;;4.53;93.92
21504;BME280;10913;51.992;9.228;2023-03-15T07:57:40;100224.69;;;4.62;93.19
21504;BME280;10913;51.992;9.228;2023-03-15T08:00:06;100224.56;;;5.10;91.92
21504;BME280;10913;51.992;9.228;2023-03-15T08:02:32;100218.03;;;7.47;87.09
21504;BME280;10913;51.992;9.228;2023-03-15T08:04:57;100211.66;;;10.17;78.33
21504;BME280;10913;51.992;9.228;2023-03-15T08:07:22;100207.72;;;13.29;69.51
21504;BME280;10913;51.992;9.228;2023-03-15T08:09:48;100197.41;;;15.72;62.73
21504;BME280;10913;51.992;9.228;2023-03-15T08:12:13;100190.94;;;17.67;57.42
21504;BME280;10913;51.992;9.228;2023-03-15T08:14:38;100192.03;;;17.36;54.96
21504;BME280;10913;51.992;9.228;2023-03-15T08:17:04;100204.41;;;16.87;54.62
21504;BME280;10913;51.992;9.228;2023-03-15T08:19:29;100209.69;;;15.77;56.12
21504;BME280;10913;51.992;9.228;2023-03-15T08:21:54;100203.81;;;14.66;57.73
21504;BME280;10913;51.992;9.228;2023-03-15T08:24:20;100217.84;;;13.54;60.10
21504;BME280;10913;51.992;9.228;2023-03-15T08:26:46;100217.22;;;14.61;58.81
21504;BME280;10913;51.992;9.228;2023-03-15T08:29:11;100223.03;;;16.35;56.02
21504;BME280;10913;51.992;9.228;2023-03-15T08:31:37;100218.19;;;18.21;52.88
21504;BME280;10913;51.992;9.228;2023-03-15T08:34:02;100223.09;;;19.99;49.93
21504;BME280;10913;51.992;9.228;2023-03-15T08:36:28;100230.53;;;21.04;47.84
21504;BME280;10913;51.992;9.228;2023-03-15T08:38:53;100227.53;;;21.94;46.17
21504;BME280;10913;51.992;9.228;2023-03-15T08:41:19;100232.19;;;22.24;45.52
21504;BME280;10913;51.992;9.228;2023-03-15T08:43:44;100237.69;;;21.56;46.26
21504;BME280;10913;51.992;9.228;2023-03-15T08:46:09;100244.75;;;21.75;46.09
21504;BME280;10913;51.992;9.228;2023-03-15T08:48:35;100247.88;;;22.00;45.92
21504;BME280;10913;51.992;9.228;2023-03-15T08:51:02;100252.00;;;21.57;46.45
21504;BME280;10913;51.992;9.228;2023-03-15T08:53:28;100245.06;;;21.69;45.84
21504;BME280;10913;51.992;9.228;2023-03-15T08:55:55;100254.66;;;21.74;45.51
21504;BME280;10913;51.992;9.228;2023-03-15T08:58:20;100258.47;;;21.86;44.99
21504;BME280;10913;51.992;9.228;2023-03-15T09:00:48;100265.75;;;21.84;45.06
21504;BME280;10913;51.992;9.228;2023-03-15T09:03:13;100267.97;;;22.10;44.92
21504;BME280;10913;51.992;9.228;2023-03-15T09:05:40;100275.25;;;22.08;44.86
21504;BME280;10913;51.992;9.228;2023-03-15T09:08:05;100280.16;;;22.00;44.72
21504;BME280;10913;51.992;9.228;2023-03-15T09:10:31;100269.88;;;22.40;44.89
21504;BME280;10913;51.992;9.228;2023-03-15T09:12:58;100283.41;;;22.07;44.55
21504;BME280;10913;51.992;9.228;2023-03-15T09:15:24;100283.41;;;21.89;44.81
21504;BME280;10913;51.992;9.228;2023-03-15T09:17:49;100283.47;;;21.88;45.81
21504;BME280;10913;51.992;9.228;2023-03-15T09:20:18;100299.59;;;21.19;45.82
21504;BME280;10913;51.992;9.228;2023-03-15T09:22:51;100302.00;;;20.89;46.47
21504;BME280;10913;51.992;9.228;2023-03-15T09:25:17;100298.69;;;20.46;47.24
21504;BME280;10913;51.992;9.228;2023-03-15T09:27:43;100299.22;;;19.97;48.31
21504;BME280;10913;51.992;9.228;2023-03-15T09:30:09;100297.63;;;19.52;49.02
21504;BME280;10913;51.992;9.228;2023-03-15T09:32:35;100307.56;;;18.84;49.71
21504;BME280;10913;51.992;9.228;2023-03-15T09:35:05;100313.00;;;17.65;50.63
21504;BME280;10913;51.992;9.228;2023-03-15T09:37:31;100319.03;;;16.63;52.52
21504;BME280;10913;51.992;9.228;2023-03-15T09:39:59;100325.19;;;15.75;54.46
21504;BME280;10913;51.992;9.228;2023-03-15T09:43:19;100326.50;;;15.23;55.32
21504;BME280;10913;51.992;9.228;2023-03-15T09:50:59;100341.41;;;14.96;55.94
21504;BME280;10913;51.992;9.228;2023-03-15T09:53:27;100335.78;;;15.07;55.34
21504;BME280;10913;51.992;9.228;2023-03-15T09:55:56;100340.34;;;15.02;55.67
21504;BME280;10913;51.992;9.228;2023-03-15T09:58:24;100338.09;;;14.85;56.20
21504;BME280;10913;51.992;9.228;2023-03-15T10:00:59;100346.75;;;14.13;56.61
21504;BME280;10913;51.992;9.228;2023-03-15T10:03:33;100345.50;;;13.86;56.68
21504;BME280;10913;51.992;9.228;2023-03-15T10:06:07;100345.50;;;13.88;56.83
21504;BME280;10913;51.992;9.228;2023-03-15T10:08:36;100344.44;;;13.96;57.36
21504;BME280;10913;51.992;9.228;2023-03-15T10:11:17;100345.41;;;13.44;58.41
21504;BME280;10913;51.992;9.228;2023-03-15T10:13:59;100357.38;;;13.18;58.48
21504;BME280;10913;51.992;9.228;2023-03-15T10:16:45;100355.59;;;13.18;59.71
21504;BME280;10913;51.992;9.228;2023-03-15T10:21:49;100354.06;;;13.56;59.36
21504;BME280;10913;51.992;9.228;2023-03-15T10:24:24;100358.56;;;12.97;58.92
21504;BME280;10913;51.992;9.228;2023-03-15T10:26:54;100359.03;;;12.63;59.43
21504;BME280;10913;51.992;9.228;2023-03-15T10:29:24;100365.44;;;11.78;60.59
21504;BME280;10913;51.992;9.228;2023-03-15T10:31:54;100365.28;;;11.90;61.11
21504;BME280;10913;51.992;9.228;2023-03-15T10:34:19;100362.31;;;12.18;62.33
21504;BME280;10913;51.992;9.228;2023-03-15T10:36:48;100368.03;;;12.53;61.29
21504;BME280;10913;51.992;9.228;2023-03-15T10:39:14;100364.16;;;12.79;60.53
21504;BME280;10913;51.992;9.228;2023-03-15T10:41:42;100358.72;;;12.85;60.61
21504;BME280;10913;51.992;9.228;2023-03-15T10:44:17;100371.25;;;12.76;60.99
21504;BME280;10913;51.992;9.228;2023-03-15T10:46:59;100364.66;;;12.40;60.34
21504;BME280;10913;51.992;9.228;2023-03-15T10:49:55;100360.44;;;12.24;60.21
21504;BME280;10913;51.992;9.228;2023-03-15T10:54:56;100367.88;;;11.95;61.54
21504;BME280;10913;51.992;9.228;2023-03-15T10:57:27;100371.63;;;11.72;62.29
21504;BME280;10913;51.992;9.228;2023-03-15T10:59:59;100374.69;;;11.24;63.37
21504;BME280;10913;51.992;9.228;2023-03-15T11:02:31;100378.38;;;11.06;63.95
21504;BME280;10913;51.992;9.228;2023-03-15T11:07:35;100371.69;;;11.65;62.79
21504;BME280;10913;51.992;9.228;2023-03-15T11:10:03;100361.72;;;11.94;62.06
21504;BME280;10913;51.992;9.228;2023-03-15T11:12:31;100377.63;;;11.91;61.15
21504;BME280;10913;51.992;9.228;2023-03-15T11:15:09;100383.84;;;11.87;61.41
21504;BME280;10913;51.992;9.228;2023-03-15T11:17:42;100376.09;;;11.63;61.88
21504;BME280;10913;51.992;9.228;2023-03-15T11:20:26;100386.13;;;11.27;62.62
21504;BME280;10913;51.992;9.228;2023-03-15T11:22:54;100396.22;;;10.77;64.46
21504;BME280;10913;51.992;9.228;2023-03-15T11:25:22;100397.91;;;10.81;64.83
21504;BME280;10913;51.992;9.228;2023-03-15T11:27:50;100398.72;;;10.96;65.10
21504;BME280;10913;51.992;9.228;2023-03-15T11:30:21;100408.94;;;11.39;63.42
21504;BME280;10913;51.992;9.228;2023-03-15T11:32:49;100403.38;;;11.77;63.52
21504;BME280;10913;51.992;9.228;2023-03-15T11:35:22;100396.03;;;12.02;62.25
21504;BME280;10913;51.992;9.228;2023-03-15T11:37:57;100399.25;;;12.30;62.27
21504;BME280;10913;51.992;9.228;2023-03-15T11:40:33;100403.75;;;12.22;62.57
21504;BME280;10913;51.992;9.228;2023-03-15T11:43:47;100410.97;;;12.07;62.18
21504;BME280;10913;51.992;9.228;2023-03-15T11:46:03;100403.75;;;12.20;60.24
21504;BME280;10913;51.992;9.228;2023-03-15T11:48:36;100409.72;;;12.39;59.02
21504;BME280;10913;51.992;9.228;2023-03-15T11:51:06;100396.31;;;12.51;59.41
21504;BME280;10913;51.992;9.228;2023-03-15T11:53:34;100399.00;;;12.50;58.78
21504;BME280;10913;51.992;9.228;2023-03-15T11:56:21;100396.63;;;12.27;59.10
21504;BME280;10913;51.992;9.228;2023-03-15T11:59:10;100405.38;;;12.35;58.65
21504;BME280;10913;51.992;9.228;2023-03-15T12:01:50;100390.44;;;12.26;58.92
21504;BME280;10913;51.992;9.228;2023-03-15T12:06:51;100411.47;;;11.56;57.96
21504;BME280;10913;51.992;9.228;2023-03-15T12:11:58;100413.47;;;11.26;59.50
21504;BME280;10913;51.992;9.228;2023-03-15T12:19:58;100405.66;;;11.13;59.29
21504;BME280;10913;51.992;9.228;2023-03-15T12:22:30;100411.09;;;10.90;59.10
21504;BME280;10913;51.992;9.228;2023-03-15T12:24:58;100422.53;;;10.95;58.42
21504;BME280;10913;51.992;9.228;2023-03-15T12:27:30;100421.66;;;10.88;56.84
21504;BME280;10913;51.992;9.228;2023-03-15T12:30:00;100419.91;;;10.86;55.86
21504;BME280;10913;51.992;9.228;2023-03-15T12:32:28;100419.88;;;10.95;59.00
21504;BME280;10913;51.992;9.228;2023-03-15T12:35:06;100436.63;;;10.95;59.34
21504;BME280;10913;51.992;9.228;2023-03-15T12:55:39;100433.34;;;10.45;58.78
21504;BME280;10913;51.992;9.228;2023-03-15T12:58:09;100443.97;;;10.25;59.81
21504;BME280;10913;51.992;9.228;2023-03-15T13:00:36;100442.22;;;10.09;61.16
21504;BME280;10913;51.992;9.228;2023-03-15T13:03:11;100433.47;;;9.97;60.30
21504;BME280;10913;51.992;9.228;2023-03-15T13:09:02;100436.13;;;9.85;62.47
21504;BME280;10913;51.992;9.228;2023-03-15T13:11:44;100455.47;;;9.89;62.52
21504;BME280;10913;51.992;9.228;2023-03-15T13:14:37;100452.81;;;9.87;61.02
21504;BME280;10913;51.992;9.228;2023-03-15T13:17:27;100459.88;;;9.61;62.37
21504;BME280;10913;51.992;9.228;2023-03-15T13:22:35;100489.75;;;9.29;62.48
21504;BME280;10913;51.992;9.228;2023-03-15T13:28:20;100493.94;;;8.54;67.10
21504;BME280;10913;51.992;9.228;2023-03-15T13:30:48;100478.97;;;8.47;68.17
21504;BME280;10913;51.992;9.228;2023-03-15T13:33:22;100486.75;;;8.30;69.28
21504;BME280;10913;51.992;9.228;2023-03-15T13:40:59;100514.56;;;7.93;71.23
21504;BME280;10913;51.992;9.228;2023-03-15T13:43:28;100522.47;;;7.93;72.17
21504;BME280;10913;51.992;9.228;2023-03-15T13:45:56;100519.03;;;8.07;73.25
21504;BME280;10913;51.992;9.228;2023-03-15T13:48:22;100519.19;;;8.28;73.84
21504;BME280;10913;51.992;9.228;2023-03-15T13:50:48;100507.94;;;8.52;73.92
21504;BME280;10913;51.992;9.228;2023-03-15T13:53:23;100495.75;;;8.72;73.54
21504;BME280;10913;51.992;9.228;2023-03-15T13:55:51;100500.22;;;8.96;73.93
21504;BME280;10913;51.992;9.228;2023-03-15T13:58:18;100502.88;;;9.08;72.48
21504;BME280;10913;51.992;9.228;2023-03-15T14:00:45;100502.94;;;9.19;71.76
21504;BME280;10913;51.992;9.228;2023-03-15T14:03:19;100509.97;;;9.30;72.42
21504;BME280;10913;51.992;9.228;2023-03-15T14:05:53;100506.47;;;9.39;71.57